sensor_id;sensor_type;location;lat;lon;timestamp;pressure;altitude;pressure_sealevel;temperature;humidity
13974;BME280;7060;43.770;4.008;2023-08-08T00:02:08;101196.16;;;19.26;37.40
13974;BME280;7060;43.770;4.008;2023-08-08T00:04:37;101186.97;;;19.06;37.78
13974;BME280;7060;43.770;4.008;2023-08-08T00:07:06;101189.91;;;18.89;38.00
13974;BME280;7060;43.770;4.008;2023-08-08T00:09:35;101186.38;;;18.74;38.32
13974;BME280;7060;43.770;4.008;2023-08-08T00:12:05;101181.81;;;18.60;38.34
13974;BME280;7060;43.770;4.008;2023-08-08T00:14:35;101176.47;;;18.52;38.59
13974;BME280;7060;43.770;4.008;2023-08-08T00:17:04;101169.38;;;18.51;38.55
13974;BME280;7060;43.770;4.008;2023-08-08T00:19:32;101171.59;;;18.47;38.68
13974;BME280;7060;43.770;4.008;2023-08-08T00:22:01;101170.50;;;18.42;38.92
13974;BME280;7060;43.770;4.008;2023-08-08T00:24:30;101180.56;;;18.33;39.08
13974;BME280;7060;43.770;4.008;2023-08-08T00:26:59;101172.22;;;18.20;39.44
13974;BME280;7060;43.770;4.008;2023-08-08T00:29:28;101172.03;;;18.07;39.57
13974;BME280;7060;43.770;4.008;2023-08-08T00:31:59;101170.06;;;18.01;39.92
13974;BME280;7060;43.770;4.008;2023-08-08T00:34:28;101172.00;;;17.92;39.90
13974;BME280;7060;43.770;4.008;2023-08-08T00:36:58;101173.38;;;17.88;40.13
13974;BME280;7060;43.770;4.008;2023-08-08T00:39:26;101170.47;;;17.75;40.35
13974;BME280;7060;43.770;4.008;2023-08-08T00:41:55;101167.16;;;17.65;40.34
13974;BME280;7060;43.770;4.008;2023-08-08T00:44:24;101170.59;;;17.58;40.50
13974;BME280;7060;43.770;4.008;2023-08-08T00:46:54;101166.88;;;17.59;40.42
13974;BME280;7060;43.770;4.008;2023-08-08T00:49:24;101169.06;;;17.56;40.53
13974;BME280;7060;43.770;4.008;2023-08-08T00:51:53;101171.00;;;17.47;40.80
13974;BME280;7060;43.770;4.008;2023-08-08T00:54:21;101166.13;;;17.43;40.92
13974;BME280;7060;43.770;4.008;2023-08-08T00:56:50;101152.47;;;17.36;40.85
13974;BME280;7060;43.770;4.008;2023-08-08T00:59:20;101159.09;;;17.34;41.01
13974;BME280;7060;43.770;4.008;2023-08-08T01:01:52;101162.03;;;17.24;41.24
13974;BME280;7060;43.770;4.008;2023-08-08T01:04:24;101161.91;;;17.17;41.30
13974;BME280;7060;43.770;4.008;2023-08-08T01:07:00;101156.06;;;17.06;41.33
13974;BME280;7060;43.770;4.008;2023-08-08T01:09:36;101155.25;;;17.05;41.48
13974;BME280;7060;43.770;4.008;2023-08-08T01:12:08;101152.22;;;17.00;41.45
13974;BME280;7060;43.770;4.008;2023-08-08T01:14:40;101164.38;;;17.04;41.44
13974;BME280;7060;43.770;4.008;2023-08-08T01:17:12;101161.53;;;16.98;41.75
13974;BME280;7060;43.770;4.008;2023-08-08T01:19:43;101161.91;;;16.86;41.87
13974;BME280;7060;43.770;4.008;2023-08-08T01:22:20;101160.91;;;16.79;42.02
13974;BME280;7060;43.770;4.008;2023-08-08T01:24:53;101160.97;;;16.71;41.86
13974;BME280;7060;43.770;4.008;2023-08-08T01:27:22;101159.13;;;16.64;42.01
13974;BME280;7060;43.770;4.008;2023-08-08T01:29:52;101168.75;;;16.58;41.90
13974;BME280;7060;43.770;4.008;2023-08-08T01:32:21;101159.34;;;16.46;42.16
13974;BME280;7060;43.770;4.008;2023-08-08T01:34:50;101174.00;;;16.51;42.19
13974;BME280;7060;43.770;4.008;2023-08-08T01:37:22;101174.53;;;16.47;42.45
13974;BME280;7060;43.770;4.008;2023-08-08T01:39:57;101167.13;;;16.41;42.69
13974;BME280;7060;43.770;4.008;2023-08-08T01:42:27;101166.47;;;16.31;42.75
13974;BME280;7060;43.770;4.008;2023-08-08T01:44:56;101172.53;;;16.24;42.72
13974;BME280;7060;43.770;4.008;2023-08-08T01:47:27;101168.84;;;16.25;42.46
13974;BME280;7060;43.770;4.008;2023-08-08T01:49:56;101173.56;;;16.23;42.69
13974;BME280;7060;43.770;4.008;2023-08-08T01:52:24;101173.44;;;16.17;43.16
13974;BME280;7060;43.770;4.008;2023-08-08T01:54:53;101167.53;;;16.05;43.19
13974;BME280;7060;43.770;4.008;2023-08-08T01:57:24;101165.84;;;15.96;43.28
13974;BME280;7060;43.770;4.008;2023-08-08T01:59:52;101167.91;;;15.86;43.66
13974;BME280;7060;43.770;4.008;2023-08-08T02:02:21;101166.38;;;15.75;44.18
13974;BME280;7060;43.770;4.008;2023-08-08T02:04:51;101171.59;;;15.69;44.00
13974;BME280;7060;43.770;4.008;2023-08-08T02:07:19;101167.88;;;15.62;43.90
13974;BME280;7060;43.770;4.008;2023-08-08T02:09:48;101166.88;;;15.63;43.94
13974;BME280;7060;43.770;4.008;2023-08-08T02:12:18;101168.03;;;15.60;44.18
13974;BME280;7060;43.770;4.008;2023-08-08T02:14:49;101166.84;;;15.54;44.14
13974;BME280;7060;43.770;4.008;2023-08-08T02:17:18;101164.50;;;15.51;44.40
13974;BME280;7060;43.770;4.008;2023-08-08T02:19:48;101160.44;;;15.47;44.37
13974;BME280;7060;43.770;4.008;2023-08-08T02:22:17;101166.84;;;15.38;44.55
13974;BME280;7060;43.770;4.008;2023-08-08T02:24:45;101166.34;;;15.35;44.32
13974;BME280;7060;43.770;4.008;2023-08-08T02:27:14;101164.81;;;15.32;44.04
13974;BME280;7060;43.770;4.008;2023-08-08T02:29:42;101159.75;;;15.29;44.41
13974;BME280;7060;43.770;4.008;2023-08-08T02:32:12;101167.16;;;15.27;44.19
13974;BME280;7060;43.770;4.008;2023-08-08T02:34:41;101164.97;;;15.22;44.43
13974;BME280;7060;43.770;4.008;2023-08-08T02:37:10;101161.06;;;15.17;44.44
13974;BME280;7060;43.770;4.008;2023-08-08T02:39:40;101160.59;;;15.13;44.54
13974;BME280;7060;43.770;4.008;2023-08-08T02:42:09;101156.38;;;15.11;44.80
13974;BME280;7060;43.770;4.008;2023-08-08T02:44:38;101153.00;;;15.09;44.36
13974;BME280;7060;43.770;4.008;2023-08-08T02:47:06;101160.41;;;15.07;44.45
13974;BME280;7060;43.770;4.008;2023-08-08T02:49:38;101157.03;;;15.05;44.14
13974;BME280;7060;43.770;4.008;2023-08-08T02:52:07;101156.84;;;14.98;44.67
13974;BME280;7060;43.770;4.008;2023-08-08T02:57:45;101166.56;;;14.83;45.21
13974;BME280;7060;43.770;4.008;2023-08-08T03:00:14;101161.50;;;14.80;45.15
13974;BME280;7060;43.770;4.008;2023-08-08T03:02:47;101165.72;;;14.82;45.83
13974;BME280;7060;43.770;4.008;2023-08-08T03:05:18;101158.81;;;14.80;45.73
13974;BME280;7060;43.770;4.008;2023-08-08T03:07:48;101162.81;;;14.76;46.23
13974;BME280;7060;43.770;4.008;2023-08-08T03:10:17;101159.09;;;14.69;46.04
13974;BME280;7060;43.770;4.008;2023-08-08T03:12:48;101159.56;;;14.64;46.17
13974;BME280;7060;43.770;4.008;2023-08-08T03:15:19;101168.47;;;14.56;46.62
13974;BME280;7060;43.770;4.008;2023-08-08T03:17:49;101162.53;;;14.53;46.90
13974;BME280;7060;43.770;4.008;2023-08-08T03:20:21;101162.16;;;14.48;47.28
13974;BME280;7060;43.770;4.008;2023-08-08T03:22:50;101162.47;;;14.45;47.63
13974;BME280;7060;43.770;4.008;2023-08-08T03:25:20;101164.16;;;14.46;47.42
13974;BME280;7060;43.770;4.008;2023-08-08T03:27:50;101167.19;;;14.43;47.24
13974;BME280;7060;43.770;4.008;2023-08-08T03:30:20;101168.88;;;14.44;47.04
13974;BME280;7060;43.770;4.008;2023-08-08T03:32:49;101167.19;;;14.43;47.17
13974;BME280;7060;43.770;4.008;2023-08-08T03:35:20;101158.25;;;14.42;47.24
13974;BME280;7060;43.770;4.008;2023-08-08T03:37:49;101171.72;;;14.42;47.39
13974;BME280;7060;43.770;4.008;2023-08-08T03:40:19;101172.19;;;14.38;47.81
13974;BME280;7060;43.770;4.008;2023-08-08T03:42:48;101170.47;;;14.29;47.78
13974;BME280;7060;43.770;4.008;2023-08-08T03:45:16;101170.63;;;14.27;47.81
13974;BME280;7060;43.770;4.008;2023-08-08T03:47:45;101170.78;;;14.26;47.87
13974;BME280;7060;43.770;4.008;2023-08-08T03:50:14;101175.47;;;14.23;48.31
13974;BME280;7060;43.770;4.008;2023-08-08T03:52:45;101174.78;;;14.21;48.05
13974;BME280;7060;43.770;4.008;2023-08-08T03:55:14;101178.28;;;14.14;48.24
13974;BME280;7060;43.770;4.008;2023-08-08T03:57:42;101181.59;;;14.08;48.83
13974;BME280;7060;43.770;4.008;2023-08-08T04:00:12;101182.59;;;14.07;48.60
13974;BME280;7060;43.770;4.008;2023-08-08T04:02:41;101178.75;;;14.09;48.30
13974;BME280;7060;43.770;4.008;2023-08-08T04:05:10;101183.13;;;14.10;48.00
13974;BME280;7060;43.770;4.008;2023-08-08T04:07:39;101182.44;;;14.08;47.66
13974;BME280;7060;43.770;4.008;2023-08-08T04:10:10;101180.44;;;14.10;48.43
13974;BME280;7060;43.770;4.008;2023-08-08T04:12:39;101188.09;;;13.97;48.94
13974;BME280;7060;43.770;4.008;2023-08-08T04:15:08;101194.53;;;13.86;49.01
13974;BME280;7060;43.770;4.008;2023-08-08T04:17:37;101195.16;;;13.80;49.42
13974;BME280;7060;43.770;4.008;2023-08-08T04:20:07;101190.63;;;13.81;49.06
13974;BME280;7060;43.770;4.008;2023-08-08T04:22:37;101191.97;;;13.77;49.19
13974;BME280;7060;43.770;4.008;2023-08-08T04:25:07;101191.97;;;13.77;49.04
13974;BME280;7060;43.770;4.008;2023-08-08T04:27:38;101188.88;;;13.72;49.61
13974;BME280;7060;43.770;4.008;2023-08-08T04:30:07;101191.19;;;13.67;49.88
13974;BME280;7060;43.770;4.008;2023-08-08T04:32:36;101203.78;;;13.66;49.35
13974;BME280;7060;43.770;4.008;2023-08-08T04:35:06;101192.88;;;13.68;49.18
13974;BME280;7060;43.770;4.008;2023-08-08T04:37:35;101200.56;;;13.63;50.01
13974;BME280;7060;43.770;4.008;2023-08-08T04:40:05;101194.25;;;13.54;49.86
13974;BME280;7060;43.770;4.008;2023-08-08T04:42:35;101189.66;;;13.46;49.93
13974;BME280;7060;43.770;4.008;2023-08-08T04:45:07;101195.50;;;13.42;50.10
13974;BME280;7060;43.770;4.008;2023-08-08T04:47:35;101193.09;;;13.39;50.08
13974;BME280;7060;43.770;4.008;2023-08-08T04:50:05;101200.28;;;13.38;50.29
13974;BME280;7060;43.770;4.008;2023-08-08T04:52:34;101201.75;;;13.33;50.21
13974;BME280;7060;43.770;4.008;2023-08-08T04:55:04;101200.75;;;13.34;50.33
13974;BME280;7060;43.770;4.008;2023-08-08T04:57:33;101200.28;;;13.38;49.90
13974;BME280;7060;43.770;4.008;2023-08-08T05:00:08;101201.72;;;13.42;49.48
13974;BME280;7060;43.770;4.008;2023-08-08T05:02:36;101200.06;;;13.32;49.60
13974;BME280;7060;43.770;4.008;2023-08-08T05:05:07;101202.88;;;13.30;49.87
13974;BME280;7060;43.770;4.008;2023-08-08T05:07:36;101206.13;;;13.34;50.10
13974;BME280;7060;43.770;4.008;2023-08-08T05:10:05;101199.34;;;13.30;50.03
13974;BME280;7060;43.770;4.008;2023-08-08T05:12:34;101205.03;;;13.27;50.28
13974;BME280;7060;43.770;4.008;2023-08-08T05:15:06;101197.75;;;13.19;50.34
13974;BME280;7060;43.770;4.008;2023-08-08T05:17:37;101211.03;;;13.20;50.87
13974;BME280;7060;43.770;4.008;2023-08-08T05:20:07;101211.88;;;13.21;50.86
13974;BME280;7060;43.770;4.008;2023-08-08T05:22:36;101201.78;;;13.23;51.00
13974;BME280;7060;43.770;4.008;2023-08-08T05:25:06;101208.25;;;13.30;50.56
13974;BME280;7060;43.770;4.008;2023-08-08T05:27:35;101202.28;;;13.36;50.06
13974;BME280;7060;43.770;4.008;2023-08-08T05:30:07;101205.63;;;13.48;49.92
13974;BME280;7060;43.770;4.008;2023-08-08T05:32:36;101213.22;;;13.52;50.51
13974;BME280;7060;43.770;4.008;2023-08-08T05:35:07;101223.03;;;13.62;50.17
13974;BME280;7060;43.770;4.008;2023-08-08T05:37:36;101224.28;;;13.67;50.25
13974;BME280;7060;43.770;4.008;2023-08-08T05:40:06;101228.56;;;13.78;49.84
13974;BME280;7060;43.770;4.008;2023-08-08T05:42:35;101221.56;;;13.85;50.16
13974;BME280;7060;43.770;4.008;2023-08-08T05:45:04;101221.50;;;13.95;49.99
13974;BME280;7060;43.770;4.008;2023-08-08T05:47:35;101229.66;;;14.11;49.62
13974;BME280;7060;43.770;4.008;2023-08-08T05:50:05;101230.81;;;14.26;49.58
13974;BME280;7060;43.770;4.008;2023-08-08T05:52:34;101229.41;;;14.48;49.12
13974;BME280;7060;43.770;4.008;2023-08-08T05:55:03;101224.03;;;14.74;48.48
13974;BME280;7060;43.770;4.008;2023-08-08T05:57:32;101231.69;;;14.95;48.44
13974;BME280;7060;43.770;4.008;2023-08-08T06:00:01;101225.56;;;15.10;48.30
13974;BME280;7060;43.770;4.008;2023-08-08T06:02:40;101240.75;;;15.28;48.38
13974;BME280;7060;43.770;4.008;2023-08-08T06:05:10;101235.53;;;15.42;47.96
13974;BME280;7060;43.770;4.008;2023-08-08T06:07:39;101238.97;;;15.61;47.87
13974;BME280;7060;43.770;4.008;2023-08-08T06:10:08;101233.97;;;15.82;47.04
13974;BME280;7060;43.770;4.008;2023-08-08T06:12:37;101228.72;;;15.97;46.02
13974;BME280;7060;43.770;4.008;2023-08-08T06:15:07;101243.72;;;16.15;45.98
13974;BME280;7060;43.770;4.008;2023-08-08T06:17:36;101235.59;;;16.40;45.72
13974;BME280;7060;43.770;4.008;2023-08-08T06:20:07;101237.53;;;16.78;45.02
13974;BME280;7060;43.770;4.008;2023-08-08T06:22:37;101239.03;;;17.28;44.47
13974;BME280;7060;43.770;4.008;2023-08-08T06:25:06;101235.84;;;18.01;43.90
13974;BME280;7060;43.770;4.008;2023-08-08T06:27:35;101234.09;;;18.75;42.17
13974;BME280;7060;43.770;4.008;2023-08-08T06:30:05;101231.72;;;19.52;40.85
13974;BME280;7060;43.770;4.008;2023-08-08T06:32:35;101225.53;;;20.22;39.34
13974;BME280;7060;43.770;4.008;2023-08-08T06:35:07;101231.63;;;20.93;37.78
13974;BME280;7060;43.770;4.008;2023-08-08T06:37:38;101237.56;;;21.65;36.60
13974;BME280;7060;43.770;4.008;2023-08-08T06:40:08;101228.81;;;22.28;35.96
13974;BME280;7060;43.770;4.008;2023-08-08T06:42:39;101220.94;;;22.98;34.43
13974;BME280;7060;43.770;4.008;2023-08-08T06:45:08;101226.56;;;23.54;32.80
13974;BME280;7060;43.770;4.008;2023-08-08T06:47:37;101213.88;;;23.98;32.37
13974;BME280;7060;43.770;4.008;2023-08-08T06:50:09;101215.97;;;24.46;31.42
13974;BME280;7060;43.770;4.008;2023-08-08T06:52:38;101215.28;;;24.93;30.78
13974;BME280;7060;43.770;4.008;2023-08-08T06:55:09;101218.19;;;25.28;30.38
13974;BME280;7060;43.770;4.008;2023-08-08T06:57:39;101218.91;;;25.54;30.02
13974;BME280;7060;43.770;4.008;2023-08-08T07:00:12;101215.78;;;25.92;28.99
13974;BME280;7060;43.770;4.008;2023-08-08T07:02:41;101217.53;;;26.28;28.67
13974;BME280;7060;43.770;4.008;2023-08-08T07:05:11;101209.91;;;26.65;28.07
13974;BME280;7060;43.770;4.008;2023-08-08T07:07:40;101211.56;;;26.89;27.66
13974;BME280;7060;43.770;4.008;2023-08-08T07:10:09;101205.25;;;27.17;27.25
13974;BME280;7060;43.770;4.008;2023-08-08T07:12:39;101209.63;;;27.58;26.32
13974;BME280;7060;43.770;4.008;2023-08-08T07:15:09;101203.72;;;27.95;25.40
13974;BME280;7060;43.770;4.008;2023-08-08T07:17:39;101211.88;;;28.40;24.92
13974;BME280;7060;43.770;4.008;2023-08-08T07:20:08;101196.34;;;28.51;24.10
13974;BME280;7060;43.770;4.008;2023-08-08T07:22:42;101200.63;;;28.63;24.10
13974;BME280;7060;43.770;4.008;2023-08-08T07:25:11;101195.03;;;28.97;23.62
13974;BME280;7060;43.770;4.008;2023-08-08T07:27:40;101191.88;;;29.32;23.19
13974;BME280;7060;43.770;4.008;2023-08-08T07:30:09;101195.34;;;29.49;23.23
13974;BME280;7060;43.770;4.008;2023-08-08T07:32:39;101197.22;;;29.71;23.34
13974;BME280;7060;43.770;4.008;2023-08-08T07:35:08;101193.28;;;30.25;22.86
13974;BME280;7060;43.770;4.008;2023-08-08T07:37:38;101194.22;;;30.41;22.50
13974;BME280;7060;43.770;4.008;2023-08-08T07:40:15;101189.63;;;30.57;21.06
13974;BME280;7060;43.770;4.008;2023-08-08T07:42:45;101185.72;;;30.53;21.19
13974;BME280;7060;43.770;4.008;2023-08-08T07:45:15;101164.03;;;30.24;21.41
13974;BME280;7060;43.770;4.008;2023-08-08T07:47:44;101194.63;;;30.65;20.41
13974;BME280;7060;43.770;4.008;2023-08-08T07:50:13;101189.72;;;30.67;20.87
13974;BME280;7060;43.770;4.008;2023-08-08T07:52:42;101196.06;;;30.68;20.42
13974;BME280;7060;43.770;4.008;2023-08-08T07:55:11;101193.59;;;30.71;20.18
13974;BME280;7060;43.770;4.008;2023-08-08T07:57:41;101191.81;;;30.55;20.52
13974;BME280;7060;43.770;4.008;2023-08-08T08:00:11;101196.16;;;30.41;20.86
13974;BME280;7060;43.770;4.008;2023-08-08T08:02:42;101195.22;;;30.25;20.74
13974;BME280;7060;43.770;4.008;2023-08-08T08:05:12;101198.59;;;30.00;21.21
13974;BME280;7060;43.770;4.008;2023-08-08T08:07:41;101198.63;;;29.73;20.86
13974;BME280;7060;43.770;4.008;2023-08-08T08:10:11;101174.00;;;29.35;21.54
13974;BME280;7060;43.770;4.008;2023-08-08T08:12:43;101204.22;;;29.03;21.88
13974;BME280;7060;43.770;4.008;2023-08-08T08:15:13;101196.69;;;28.76;21.93
13974;BME280;7060;43.770;4.008;2023-08-08T08:17:42;101195.63;;;28.77;22.17
13974;BME280;7060;43.770;4.008;2023-08-08T08:20:11;101191.97;;;28.55;22.24
13974;BME280;7060;43.770;4.008;2023-08-08T08:22:40;101194.75;;;28.38;22.32
13974;BME280;7060;43.770;4.008;2023-08-08T08:25:08;101194.03;;;28.26;22.67
13974;BME280;7060;43.770;4.008;2023-08-08T08:27:37;101181.03;;;28.05;23.05
13974;BME280;7060;43.770;4.008;2023-08-08T08:30:08;101193.53;;;28.12;23.11
13974;BME280;7060;43.770;4.008;2023-08-08T08:32:39;101183.03;;;28.09;22.98
13974;BME280;7060;43.770;4.008;2023-08-08T08:35:09;101194.19;;;28.03;23.04
13974;BME280;7060;43.770;4.008;2023-08-08T08:37:41;101205.13;;;27.98;22.23
13974;BME280;7060;43.770;4.008;2023-08-08T08:40:11;101196.25;;;27.79;22.58
13974;BME280;7060;43.770;4.008;2023-08-08T08:42:40;101196.69;;;27.71;22.41
13974;BME280;7060;43.770;4.008;2023-08-08T08:45:11;101161.75;;;27.54;22.70
13974;BME280;7060;43.770;4.008;2023-08-08T08:47:41;101187.00;;;27.68;22.62
13974;BME280;7060;43.770;4.008;2023-08-08T08:50:15;101185.00;;;27.63;22.37
13974;BME280;7060;43.770;4.008;2023-08-08T08:52:44;101183.69;;;27.66;23.16
13974;BME280;7060;43.770;4.008;2023-08-08T08:55:13;101184.84;;;27.70;22.68
13974;BME280;7060;43.770;4.008;2023-08-08T08:57:43;101184.19;;;27.80;22.62
13974;BME280;7060;43.770;4.008;2023-08-08T09:00:15;101192.13;;;27.93;22.79
13974;BME280;7060;43.770;4.008;2023-08-08T09:02:46;101193.47;;;27.90;22.05
13974;BME280;7060;43.770;4.008;2023-08-08T09:05:16;101183.81;;;27.88;22.15
13974;BME280;7060;43.770;4.008;2023-08-08T09:07:49;101186.72;;;27.98;22.43
13974;BME280;7060;43.770;4.008;2023-08-08T09:10:20;101183.78;;;28.05;23.06
13974;BME280;7060;43.770;4.008;2023-08-08T09:12:49;101192.38;;;28.08;22.39
13974;BME280;7060;43.770;4.008;2023-08-08T09:15:19;101193.03;;;28.15;22.07
13974;BME280;7060;43.770;4.008;2023-08-08T09:17:48;101196.59;;;28.33;22.86
13974;BME280;7060;43.770;4.008;2023-08-08T09:20:17;101185.28;;;28.46;22.00
13974;BME280;7060;43.770;4.008;2023-08-08T09:22:48;101185.78;;;28.64;21.74
13974;BME280;7060;43.770;4.008;2023-08-08T09:25:17;101190.03;;;28.72;21.83
13974;BME280;7060;43.770;4.008;2023-08-08T09:27:46;101179.97;;;28.83;21.58
13974;BME280;7060;43.770;4.008;2023-08-08T09:30:16;101185.03;;;28.91;21.46
13974;BME280;7060;43.770;4.008;2023-08-08T09:32:47;101196.78;;;29.03;21.55
13974;BME280;7060;43.770;4.008;2023-08-08T09:35:16;101189.72;;;29.12;21.36
13974;BME280;7060;43.770;4.008;2023-08-08T09:37:46;101189.13;;;29.10;21.80
13974;BME280;7060;43.770;4.008;2023-08-08T09:40:15;101180.09;;;29.15;21.63
13974;BME280;7060;43.770;4.008;2023-08-08T09:42:45;101187.34;;;29.21;21.42
13974;BME280;7060;43.770;4.008;2023-08-08T09:45:14;101179.53;;;29.35;21.51
13974;BME280;7060;43.770;4.008;2023-08-08T09:47:43;101171.22;;;29.56;21.72
13974;BME280;7060;43.770;4.008;2023-08-08T09:50:13;101179.09;;;29.75;21.20
13974;BME280;7060;43.770;4.008;2023-08-08T09:52:43;101176.38;;;29.80;20.67
13974;BME280;7060;43.770;4.008;2023-08-08T09:55:13;101167.38;;;29.94;20.36
13974;BME280;7060;43.770;4.008;2023-08-08T09:57:42;101167.16;;;30.01;20.52
13974;BME280;7060;43.770;4.008;2023-08-08T10:00:12;101170.44;;;29.98;20.35
13974;BME280;7060;43.770;4.008;2023-08-08T10:02:44;101165.72;;;29.93;20.72
13974;BME280;7060;43.770;4.008;2023-08-08T10:05:15;101163.78;;;29.94;20.33
13974;BME280;7060;43.770;4.008;2023-08-08T10:07:45;101169.34;;;29.99;20.70
13974;BME280;7060;43.770;4.008;2023-08-08T10:10:14;101151.34;;;30.18;20.49
13974;BME280;7060;43.770;4.008;2023-08-08T10:12:46;101149.19;;;30.30;20.54
13974;BME280;7060;43.770;4.008;2023-08-08T10:15:15;101149.56;;;30.49;20.30
13974;BME280;7060;43.770;4.008;2023-08-08T10:17:44;101151.03;;;30.62;19.87
13974;BME280;7060;43.770;4.008;2023-08-08T10:20:13;101147.13;;;30.58;19.81
13974;BME280;7060;43.770;4.008;2023-08-08T10:22:46;101126.63;;;30.39;20.27
13974;BME280;7060;43.770;4.008;2023-08-08T10:25:19;101159.03;;;30.63;19.73
13974;BME280;7060;43.770;4.008;2023-08-08T10:27:49;101161.84;;;30.74;20.05
13974;BME280;7060;43.770;4.008;2023-08-08T10:30:19;101158.56;;;30.77;19.96
13974;BME280;7060;43.770;4.008;2023-08-08T10:32:50;101160.84;;;30.95;19.74
13974;BME280;7060;43.770;4.008;2023-08-08T10:35:19;101155.09;;;31.12;19.46
13974;BME280;7060;43.770;4.008;2023-08-08T10:37:54;101157.38;;;31.25;19.27
13974;BME280;7060;43.770;4.008;2023-08-08T10:40:23;101146.31;;;31.30;18.84
13974;BME280;7060;43.770;4.008;2023-08-08T10:42:52;101147.41;;;31.34;19.73
13974;BME280;7060;43.770;4.008;2023-08-08T10:45:29;101149.66;;;31.47;19.59
13974;BME280;7060;43.770;4.008;2023-08-08T10:48:07;101143.28;;;31.67;19.29
13974;BME280;7060;43.770;4.008;2023-08-08T10:50:38;101141.66;;;31.71;19.14
13974;BME280;7060;43.770;4.008;2023-08-08T10:53:10;101143.88;;;31.74;18.98
13974;BME280;7060;43.770;4.008;2023-08-08T10:55:39;101145.56;;;31.80;19.33
13974;BME280;7060;43.770;4.008;2023-08-08T10:58:10;101126.16;;;31.85;19.05
13974;BME280;7060;43.770;4.008;2023-08-08T11:00:39;101119.25;;;31.88;19.27
13974;BME280;7060;43.770;4.008;2023-08-08T11:03:10;101124.22;;;31.96;18.79
13974;BME280;7060;43.770;4.008;2023-08-08T11:05:39;101117.88;;;31.95;18.76
13974;BME280;7060;43.770;4.008;2023-08-08T11:08:13;101115.38;;;31.74;18.53
13974;BME280;7060;43.770;4.008;2023-08-08T11:10:43;101113.47;;;31.74;18.98
13974;BME280;7060;43.770;4.008;2023-08-08T11:13:12;101114.84;;;31.72;18.76
13974;BME280;7060;43.770;4.008;2023-08-08T11:15:41;101103.78;;;31.87;18.89
13974;BME280;7060;43.770;4.008;2023-08-08T11:18:11;101101.00;;;31.92;18.32
13974;BME280;7060;43.770;4.008;2023-08-08T11:20:43;101099.91;;;31.88;18.73
13974;BME280;7060;43.770;4.008;2023-08-08T11:23:14;101085.56;;;31.81;18.17
13974;BME280;7060;43.770;4.008;2023-08-08T11:25:44;101081.38;;;31.88;18.71
13974;BME280;7060;43.770;4.008;2023-08-08T11:28:33;101078.03;;;31.96;18.38
13974;BME280;7060;43.770;4.008;2023-08-08T11:31:02;101079.38;;;32.19;18.44
13974;BME280;7060;43.770;4.008;2023-08-08T11:33:32;101080.69;;;32.42;18.26
13974;BME280;7060;43.770;4.008;2023-08-08T11:36:01;101080.66;;;32.52;17.75
13974;BME280;7060;43.770;4.008;2023-08-08T11:38:33;101059.63;;;32.46;17.59
13974;BME280;7060;43.770;4.008;2023-08-08T11:41:02;101069.03;;;32.50;17.86
13974;BME280;7060;43.770;4.008;2023-08-08T11:43:31;101064.84;;;32.63;17.52
13974;BME280;7060;43.770;4.008;2023-08-08T11:46:00;101055.34;;;32.74;17.67
13974;BME280;7060;43.770;4.008;2023-08-08T11:48:32;101057.81;;;32.76;17.45
13974;BME280;7060;43.770;4.008;2023-08-08T11:51:03;101053.16;;;32.66;17.32
13974;BME280;7060;43.770;4.008;2023-08-08T11:53:33;101048.41;;;32.77;17.33
13974;BME280;7060;43.770;4.008;2023-08-08T11:56:03;101054.75;;;32.87;17.65
13974;BME280;7060;43.770;4.008;2023-08-08T11:58:35;101051.34;;;32.95;17.28
13974;BME280;7060;43.770;4.008;2023-08-08T12:01:05;101049.16;;;32.92;16.89
13974;BME280;7060;43.770;4.008;2023-08-08T12:03:35;101048.09;;;32.88;17.14
13974;BME280;7060;43.770;4.008;2023-08-08T12:06:11;101048.63;;;32.90;17.13
13974;BME280;7060;43.770;4.008;2023-08-08T12:08:42;101045.56;;;32.92;17.07
13974;BME280;7060;43.770;4.008;2023-08-08T12:11:12;101031.78;;;32.87;16.93
13974;BME280;7060;43.770;4.008;2023-08-08T12:13:43;101001.09;;;32.78;16.99
13974;BME280;7060;43.770;4.008;2023-08-08T12:16:13;101025.56;;;33.00;16.94
13974;BME280;7060;43.770;4.008;2023-08-08T12:18:44;101020.50;;;33.12;17.49
13974;BME280;7060;43.770;4.008;2023-08-08T12:21:14;101026.19;;;33.26;17.27
13974;BME280;7060;43.770;4.008;2023-08-08T12:23:44;101017.03;;;33.25;17.20
13974;BME280;7060;43.770;4.008;2023-08-08T12:26:13;101013.41;;;33.35;16.84
13974;BME280;7060;43.770;4.008;2023-08-08T12:28:41;101008.97;;;33.34;17.02
13974;BME280;7060;43.770;4.008;2023-08-08T12:31:10;101010.91;;;33.34;17.22
13974;BME280;7060;43.770;4.008;2023-08-08T12:33:39;101002.03;;;33.37;16.57
13974;BME280;7060;43.770;4.008;2023-08-08T12:36:08;100998.66;;;33.40;16.42
13974;BME280;7060;43.770;4.008;2023-08-08T12:38:37;100995.38;;;33.38;16.07
13974;BME280;7060;43.770;4.008;2023-08-08T12:41:07;100983.75;;;33.36;16.21
13974;BME280;7060;43.770;4.008;2023-08-08T12:43:38;100981.25;;;33.34;16.83
13974;BME280;7060;43.770;4.008;2023-08-08T12:46:07;100985.44;;;33.26;16.76
13974;BME280;7060;43.770;4.008;2023-08-08T12:48:36;100978.78;;;33.27;16.69
13974;BME280;7060;43.770;4.008;2023-08-08T12:51:05;100982.03;;;33.40;16.54
13974;BME280;7060;43.770;4.008;2023-08-08T12:53:34;100981.09;;;33.49;16.68
13974;BME280;7060;43.770;4.008;2023-08-08T12:56:03;100982.75;;;33.50;16.33
13974;BME280;7060;43.770;4.008;2023-08-08T12:58:34;100974.19;;;33.47;16.05
13974;BME280;7060;43.770;4.008;2023-08-08T13:01:02;100977.16;;;33.55;16.19
13974;BME280;7060;43.770;4.008;2023-08-08T13:03:31;100971.50;;;33.66;16.19
13974;BME280;7060;43.770;4.008;2023-08-08T13:06:01;100970.00;;;33.49;15.93
13974;BME280;7060;43.770;4.008;2023-08-08T13:08:30;100978.31;;;33.49;16.41
13974;BME280;7060;43.770;4.008;2023-08-08T13:11:00;100962.94;;;33.62;16.63
13974;BME280;7060;43.770;4.008;2023-08-08T13:13:29;100977.53;;;33.73;16.10
13974;BME280;7060;43.770;4.008;2023-08-08T13:15:59;100969.66;;;33.85;15.80
13974;BME280;7060;43.770;4.008;2023-08-08T13:18:28;100964.41;;;33.83;15.91